Augusta/Daniel Field, Georgia
Current Conditions -  °F | °C
As of 3:53 PM on Monday 24 Nov 2014 (Local Time) from KDNL Reporting Station
Scattered Clouds Scattered Clouds  
Wind Chill: 22°   Ceiling: Unl
Heat Index: 22°   Visibility: 10mi
Dew Point: 18°   Wind: 6mph
Humidity: 76%   Direction: 200°SSW
Pressure: 29.81"   Gusts: NA
Location:  33.47°N, 82.03°W
Report Text: KDNL 242053Z AUTO 20005KT 10SM FEW044 SCT110 22/18 A2981 RMK AO2 LTG DSNT NW-NE RAB19E38 SLP092 P0000 60001 T02220178 56004
Loading
Personal Weather Stations






























Interactive Weather Map New forecast layout! Learn more

10-Day Weather Forecast

Advertisements
Track Severe Weather on mobile